createdAt,value
2023-12-22T00:00:56.996Z,94.21
2023-12-22T00:03:24.014Z,94.01
2023-12-22T00:05:50.350Z,94.30
2023-12-22T00:08:16.716Z,95.58
2023-12-22T00:10:43.160Z,94.26
2023-12-22T00:13:09.583Z,95.29
2023-12-22T00:15:36.005Z,95.23
2023-12-22T00:18:02.468Z,95.05
2023-12-22T00:20:28.868Z,94.93
2023-12-22T00:22:55.295Z,94.87
2023-12-22T00:25:21.764Z,94.36
2023-12-22T00:27:48.438Z,94.73
2023-12-22T00:30:15.151Z,94.30
2023-12-22T00:32:41.521Z,94.99
2023-12-22T00:35:08.308Z,94.86
2023-12-22T00:37:34.872Z,95.04
2023-12-22T00:40:01.872Z,94.77
2023-12-22T00:42:28.281Z,94.50
2023-12-22T00:44:54.615Z,94.04
2023-12-22T00:47:21.120Z,94.23
2023-12-22T00:49:47.591Z,93.71
2023-12-22T00:52:14.012Z,93.48
2023-12-22T00:54:40.367Z,93.55
2023-12-22T00:57:06.828Z,94.74
2023-12-22T00:59:33.181Z,93.92
2023-12-22T01:01:59.563Z,94.21
2023-12-22T01:04:26.012Z,94.99
2023-12-22T01:06:52.733Z,94.76
2023-12-22T01:09:20.720Z,94.41
2023-12-22T01:11:47.594Z,94.00
2023-12-22T01:14:16.765Z,94.27
2023-12-22T01:16:43.197Z,94.14
2023-12-22T01:19:09.711Z,94.31
2023-12-22T01:21:36.171Z,94.66
2023-12-22T01:24:02.554Z,94.32
2023-12-22T01:26:29.059Z,94.29
2023-12-22T01:28:55.543Z,94.19
2023-12-22T01:31:22.081Z,94.33
2023-12-22T01:33:48.479Z,93.66
2023-12-22T01:36:14.829Z,93.65
2023-12-22T01:38:41.475Z,93.57
2023-12-22T01:41:07.841Z,94.25
2023-12-22T01:43:34.223Z,94.20
2023-12-22T01:46:02.372Z,94.43
2023-12-22T01:48:29.797Z,94.69
2023-12-22T01:50:57.437Z,94.25
2023-12-22T01:53:25.168Z,95.05
2023-12-22T01:55:52.928Z,94.76
2023-12-22T01:58:20.921Z,95.21
2023-12-22T02:00:47.621Z,95.21
2023-12-22T02:03:14.915Z,96.20
2023-12-22T02:05:42.599Z,96.19
2023-12-22T02:08:09.296Z,96.29
2023-12-22T02:10:35.903Z,96.13
2023-12-22T02:13:02.459Z,95.93
2023-12-22T02:15:29.068Z,96.33
2023-12-22T02:18:17.938Z,96.87
2023-12-22T02:20:45.271Z,97.00
2023-12-22T02:23:11.869Z,96.94
2023-12-22T02:25:38.270Z,96.76
2023-12-22T02:28:14.757Z,96.66
2023-12-22T02:31:02.139Z,96.64
2023-12-22T02:33:30.670Z,96.09
2023-12-22T02:36:01.237Z,96.02
2023-12-22T02:38:27.979Z,95.89
2023-12-22T02:40:54.385Z,95.76
2023-12-22T02:43:20.877Z,95.80
2023-12-22T02:45:51.868Z,95.80
2023-12-22T02:48:18.678Z,95.32
2023-12-22T02:50:45.107Z,96.73
2023-12-22T02:53:11.442Z,95.92
2023-12-22T02:55:37.768Z,95.94
2023-12-22T02:58:04.257Z,96.13
2023-12-22T03:00:30.629Z,95.27
2023-12-22T03:02:56.947Z,95.79
2023-12-22T03:05:23.454Z,96.73
2023-12-22T03:07:50.171Z,94.78
2023-12-22T03:10:16.716Z,94.86
2023-12-22T03:12:43.365Z,93.52
2023-12-22T03:15:10.298Z,94.00
2023-12-22T03:17:36.583Z,93.85
2023-12-22T03:20:03.046Z,93.61
2023-12-22T03:22:29.578Z,93.91
2023-12-22T03:24:55.977Z,94.48
2023-12-22T03:27:22.292Z,94.85
2023-12-22T03:29:48.654Z,94.66
2023-12-22T03:32:15.028Z,94.93
2023-12-22T03:34:42.409Z,95.45
2023-12-22T03:37:08.823Z,95.74
2023-12-22T03:39:35.142Z,96.27
2023-12-22T03:42:01.503Z,95.83
2023-12-22T03:44:28.652Z,96.27
2023-12-22T03:46:55.070Z,95.69
2023-12-22T03:49:21.627Z,96.29
2023-12-22T03:51:48.027Z,96.62
2023-12-22T03:54:16.892Z,96.31
2023-12-22T03:56:43.443Z,96.64
2023-12-22T03:59:09.862Z,95.82
2023-12-22T04:01:36.195Z,95.48
2023-12-22T04:04:02.509Z,95.11
2023-12-22T04:06:30.026Z,93.94
2023-12-22T04:08:56.429Z,93.09
2023-12-22T04:11:22.731Z,92.88
2023-12-22T04:13:49.046Z,93.18
2023-12-22T04:16:15.393Z,92.76
2023-12-22T04:18:41.906Z,91.81
2023-12-22T04:21:08.277Z,92.14
2023-12-22T04:23:34.686Z,91.33
2023-12-22T04:26:02.670Z,90.42
2023-12-22T04:28:29.036Z,90.67
2023-12-22T04:30:55.352Z,90.01
2023-12-22T04:33:21.829Z,89.61
2023-12-22T04:35:48.254Z,89.51
2023-12-22T04:38:14.569Z,89.66
2023-12-22T04:40:40.947Z,89.55
2023-12-22T04:43:07.327Z,89.65
2023-12-22T04:45:33.652Z,90.10
2023-12-22T04:48:00.202Z,89.99
2023-12-22T04:50:26.622Z,89.88
2023-12-22T04:52:53.051Z,89.24
2023-12-22T04:55:19.548Z,89.12
2023-12-22T04:57:45.985Z,89.06
2023-12-22T05:00:13.448Z,89.31
2023-12-22T05:02:39.760Z,88.61
2023-12-22T05:05:06.283Z,89.26
2023-12-22T05:07:32.682Z,89.29
2023-12-22T05:09:59.009Z,89.66
2023-12-22T05:12:25.413Z,89.61
2023-12-22T05:14:51.843Z,89.72
2023-12-22T05:17:18.207Z,90.63
2023-12-22T05:19:44.754Z,90.67
2023-12-22T05:22:11.128Z,90.11
2023-12-22T05:24:39.194Z,90.24
2023-12-22T05:27:05.791Z,90.23
2023-12-22T05:29:32.181Z,90.36
2023-12-22T05:31:58.609Z,91.03
2023-12-22T05:34:25.088Z,90.88
2023-12-22T05:36:51.447Z,90.69
2023-12-22T05:39:17.753Z,90.30
2023-12-22T05:41:44.057Z,89.77
2023-12-22T05:44:10.456Z,90.08
2023-12-22T05:46:39.226Z,89.20
2023-12-22T05:49:06.138Z,88.70
2023-12-22T05:51:40.626Z,89.09
2023-12-22T05:54:09.495Z,88.69
2023-12-22T05:56:35.888Z,88.40
2023-12-22T05:59:02.404Z,87.97
2023-12-22T06:01:28.861Z,88.18
2023-12-22T06:03:55.899Z,88.21
2023-12-22T06:06:22.263Z,89.54
2023-12-22T06:08:48.597Z,88.97
2023-12-22T06:11:15.152Z,89.53
2023-12-22T06:13:41.589Z,90.14
2023-12-22T06:16:12.361Z,89.91
2023-12-22T06:18:38.997Z,90.27
2023-12-22T06:21:05.320Z,89.77
2023-12-22T06:23:34.294Z,90.27
2023-12-22T06:26:03.286Z,90.91
2023-12-22T06:28:29.861Z,90.51
2023-12-22T06:30:56.184Z,91.41
2023-12-22T06:33:22.552Z,90.58
2023-12-22T06:35:49.400Z,91.78
2023-12-22T06:38:15.755Z,91.44
2023-12-22T06:40:42.100Z,91.80
2023-12-22T06:43:08.430Z,91.65
2023-12-22T06:45:34.726Z,92.28
2023-12-22T06:48:01.860Z,92.20
2023-12-22T06:50:28.572Z,92.29
2023-12-22T06:52:55.006Z,92.34
2023-12-22T06:55:21.455Z,92.95
2023-12-22T06:57:48.130Z,93.38
2023-12-22T07:00:15.024Z,93.27
2023-12-22T07:02:41.429Z,93.33
2023-12-22T07:05:11.060Z,93.54
2023-12-22T07:07:37.651Z,94.28
2023-12-22T07:10:04.708Z,94.60
2023-12-22T07:12:32.690Z,94.75
2023-12-22T07:15:00.274Z,94.37
2023-12-22T07:17:26.823Z,94.69
2023-12-22T07:19:53.334Z,94.51
2023-12-22T07:22:19.886Z,94.43
2023-12-22T07:24:47.299Z,94.32
2023-12-22T07:27:13.883Z,93.97
2023-12-22T07:29:40.437Z,93.60
2023-12-22T07:32:07.152Z,93.44
2023-12-22T07:34:36.077Z,93.48
2023-12-22T07:37:07.520Z,93.13
2023-12-22T07:39:36.445Z,92.94
2023-12-22T07:42:04.052Z,92.16
2023-12-22T07:44:30.387Z,92.68
2023-12-22T07:46:59.769Z,91.94
2023-12-22T07:49:26.949Z,91.65
2023-12-22T07:51:54.134Z,91.05
2023-12-22T07:54:20.679Z,90.39
2023-12-22T07:56:47.008Z,89.92
2023-12-22T07:59:22.954Z,89.06
2023-12-22T08:01:56.622Z,88.06
2023-12-22T08:04:23.097Z,87.25
2023-12-22T08:06:49.557Z,86.97
2023-12-22T08:09:15.944Z,85.43
2023-12-22T08:11:42.323Z,85.24
2023-12-22T08:14:08.694Z,85.45
2023-12-22T08:16:35.076Z,84.50
2023-12-22T08:19:01.774Z,84.78
2023-12-22T08:21:34.605Z,84.06
2023-12-22T08:24:10.797Z,83.97
2023-12-22T08:26:38.264Z,84.17
2023-12-22T08:29:04.602Z,83.78
2023-12-22T08:31:31.012Z,83.95
2023-12-22T08:33:57.389Z,84.64
2023-12-22T08:36:23.724Z,85.53
2023-12-22T08:38:50.605Z,86.65
2023-12-22T08:41:17.346Z,88.49
2023-12-22T08:43:43.924Z,91.08
2023-12-22T08:46:10.954Z,92.27
2023-12-22T08:48:39.524Z,93.13
2023-12-22T08:51:06.245Z,93.54
2023-12-22T08:53:37.458Z,94.52
2023-12-22T08:56:04.360Z,95.61
2023-12-22T08:58:30.894Z,95.65
2023-12-22T09:00:57.273Z,96.60
2023-12-22T09:03:24.555Z,96.84
2023-12-22T09:05:51.002Z,96.89
2023-12-22T09:08:17.399Z,98.25
2023-12-22T09:10:44.084Z,98.57
2023-12-22T09:13:10.437Z,98.46
2023-12-22T09:15:37.258Z,100.00
2023-12-22T09:18:03.982Z,100.00
2023-12-22T09:20:31.176Z,100.00
2023-12-22T09:22:57.526Z,100.00
2023-12-22T09:25:25.170Z,100.00
2023-12-22T09:27:51.947Z,100.00
2023-12-22T09:30:18.680Z,100.00
2023-12-22T09:32:45.230Z,100.00
2023-12-22T09:35:11.665Z,100.00
2023-12-22T09:37:39.065Z,100.00
2023-12-22T09:40:08.437Z,100.00
2023-12-22T09:42:35.021Z,100.00
2023-12-22T09:45:03.994Z,100.00
2023-12-22T09:47:32.061Z,100.00
2023-12-22T09:49:59.256Z,100.00
2023-12-22T09:52:27.321Z,100.00
2023-12-22T09:54:57.922Z,100.00
2023-12-22T09:57:28.562Z,100.00
2023-12-22T09:59:56.889Z,100.00
2023-12-22T10:02:26.889Z,100.00
2023-12-22T10:04:53.668Z,100.00
2023-12-22T10:07:21.552Z,100.00
2023-12-22T10:09:48.948Z,100.00
2023-12-22T10:12:15.875Z,100.00
2023-12-22T10:14:42.341Z,100.00
2023-12-22T10:17:08.832Z,100.00
2023-12-22T10:19:35.343Z,100.00
2023-12-22T10:22:01.714Z,100.00
2023-12-22T10:24:53.055Z,100.00
2023-12-22T10:27:23.525Z,100.00
2023-12-22T10:29:51.070Z,100.00
2023-12-22T10:32:17.986Z,99.06
2023-12-22T10:34:44.504Z,99.87
2023-12-22T10:37:11.231Z,98.05
2023-12-22T10:39:38.815Z,98.66
2023-12-22T10:42:05.750Z,98.83
2023-12-22T10:44:32.070Z,99.40
2023-12-22T10:46:59.345Z,98.79
2023-12-22T10:49:26.409Z,97.66
2023-12-22T10:51:53.021Z,97.94
2023-12-22T10:54:20.357Z,96.65
2023-12-22T10:56:46.743Z,96.51
2023-12-22T10:59:13.153Z,97.36
2023-12-22T11:01:39.994Z,96.29
2023-12-22T11:04:14.897Z,95.48
2023-12-22T11:06:43.881Z,95.81
2023-12-22T11:09:11.279Z,95.16
2023-12-22T11:11:39.654Z,94.70
2023-12-22T11:14:07.770Z,93.38
2023-12-22T11:16:35.986Z,93.05
2023-12-22T11:19:05.771Z,92.99
2023-12-22T11:21:32.202Z,92.83
2023-12-22T11:23:58.652Z,92.62
2023-12-22T11:26:26.134Z,91.36
2023-12-22T11:28:53.402Z,92.04
2023-12-22T11:31:21.430Z,91.12
2023-12-22T11:33:58.740Z,91.66
2023-12-22T11:36:32.563Z,90.68
2023-12-22T11:38:59.128Z,91.16
2023-12-22T11:41:28.813Z,91.23
2023-12-22T11:43:57.533Z,90.43
2023-12-22T11:46:24.849Z,89.96
2023-12-22T11:48:53.073Z,90.49
2023-12-22T11:51:19.976Z,90.30
2023-12-22T11:53:46.405Z,90.29
2023-12-22T11:56:14.346Z,89.94
2023-12-22T11:58:43.544Z,89.49
2023-12-22T12:01:11.696Z,89.39
2023-12-22T12:03:42.555Z,90.69
2023-12-22T12:06:15.341Z,90.91
2023-12-22T12:08:42.921Z,91.71
2023-12-22T12:11:09.420Z,91.59
2023-12-22T12:13:43.719Z,92.38
2023-12-22T12:16:12.208Z,92.24
2023-12-22T12:18:39.797Z,93.25
2023-12-22T12:21:11.012Z,94.05
2023-12-22T12:23:37.730Z,93.96
2023-12-22T12:26:04.649Z,93.84
2023-12-22T12:28:32.401Z,94.12
2023-12-22T12:31:00.962Z,94.53
2023-12-22T12:33:28.933Z,96.04
2023-12-22T12:35:59.364Z,96.53
2023-12-22T12:38:50.473Z,96.45
2023-12-22T12:41:17.163Z,96.39
2023-12-22T12:43:44.530Z,97.15
2023-12-22T12:46:11.858Z,97.15
2023-12-22T12:48:38.781Z,97.12
2023-12-22T12:51:06.063Z,97.70
2023-12-22T12:53:36.355Z,98.26
2023-12-22T12:56:02.916Z,98.32
2023-12-22T12:58:33.499Z,98.19
2023-12-22T13:01:20.529Z,98.98
2023-12-22T13:03:53.772Z,99.21
2023-12-22T13:06:20.184Z,99.13
2023-12-22T13:08:53.272Z,98.81
2023-12-22T13:11:28.090Z,98.19
2023-12-22T13:13:54.748Z,98.21
2023-12-22T13:16:21.898Z,98.97
2023-12-22T13:18:49.126Z,98.24
2023-12-22T13:21:15.981Z,98.69
2023-12-22T13:23:42.602Z,97.69
2023-12-22T13:26:19.963Z,97.22
2023-12-22T13:28:46.461Z,95.88
2023-12-22T13:31:19.089Z,96.38
2023-12-22T13:33:46.164Z,94.94
2023-12-22T13:36:13.285Z,94.76
2023-12-22T13:38:40.083Z,94.07
2023-12-22T13:41:08.694Z,93.39
2023-12-22T13:43:35.099Z,92.84
2023-12-22T13:46:01.604Z,92.16
2023-12-22T13:48:28.022Z,92.24
2023-12-22T13:51:02.236Z,90.94
2023-12-22T13:53:28.708Z,91.43
2023-12-22T13:55:59.075Z,91.06
2023-12-22T13:58:25.711Z,91.53
2023-12-22T14:00:52.948Z,91.63
2023-12-22T14:03:26.099Z,91.99
2023-12-22T14:05:54.355Z,91.69
2023-12-22T14:08:20.846Z,92.91
2023-12-22T14:10:50.363Z,92.97
2023-12-22T14:13:16.814Z,92.49
2023-12-22T14:15:45.589Z,92.50
2023-12-22T14:18:12.781Z,92.85
2023-12-22T14:20:39.476Z,92.01
2023-12-22T14:23:06.096Z,92.81
2023-12-22T14:25:33.166Z,92.08
2023-12-22T14:28:00.100Z,91.20
2023-12-22T14:30:26.409Z,91.64
2023-12-22T14:32:53.077Z,92.10
2023-12-22T14:35:19.561Z,91.96
2023-12-22T14:37:47.511Z,91.13
2023-12-22T14:40:14.097Z,91.01
2023-12-22T14:42:40.425Z,90.88
2023-12-22T14:45:07.074Z,90.50
2023-12-22T14:47:33.495Z,90.12
2023-12-22T14:50:04.746Z,89.86
2023-12-22T14:52:34.343Z,89.66
2023-12-22T14:55:01.352Z,88.98
2023-12-22T14:57:29.933Z,87.65
2023-12-22T14:59:56.532Z,88.29
2023-12-22T15:02:23.527Z,87.74
2023-12-22T15:04:49.943Z,88.27
2023-12-22T15:07:17.787Z,88.28
2023-12-22T15:09:44.596Z,88.19
2023-12-22T15:12:11.433Z,87.73
2023-12-22T15:14:37.679Z,87.46
2023-12-22T15:17:04.152Z,87.65
2023-12-22T15:19:30.661Z,87.19
2023-12-22T15:21:57.137Z,86.83
2023-12-22T15:24:24.554Z,87.02
2023-12-22T15:26:51.906Z,86.59
2023-12-22T15:29:18.225Z,85.58
2023-12-22T15:31:48.810Z,85.94
2023-12-22T15:34:15.345Z,85.72
2023-12-22T15:36:41.766Z,85.38
2023-12-22T15:39:08.114Z,85.30
2023-12-22T15:41:34.512Z,85.10
2023-12-22T15:44:01.217Z,85.16
2023-12-22T15:46:27.628Z,84.51
2023-12-22T15:48:54.211Z,84.20
2023-12-22T15:51:21.400Z,84.90
2023-12-22T15:53:48.120Z,84.82
2023-12-22T15:56:14.879Z,84.90
2023-12-22T15:58:41.597Z,84.69
2023-12-22T16:01:08.291Z,84.99
2023-12-22T16:03:34.852Z,84.80
2023-12-22T16:06:05.118Z,85.11
2023-12-22T16:08:34.302Z,84.56
2023-12-22T16:11:00.686Z,85.10
2023-12-22T16:13:30.399Z,84.06
2023-12-22T16:16:01.148Z,84.44
2023-12-22T16:18:27.866Z,84.12
2023-12-22T16:20:54.347Z,83.98
2023-12-22T16:23:23.485Z,84.29
2023-12-22T16:25:53.567Z,84.81
2023-12-22T16:28:20.419Z,85.00
2023-12-22T16:30:47.552Z,85.66
2023-12-22T16:33:15.366Z,86.12
2023-12-22T16:35:42.778Z,86.35
2023-12-22T16:38:09.358Z,85.38
2023-12-22T16:40:35.809Z,85.87
2023-12-22T16:43:02.184Z,85.27
2023-12-22T16:45:28.505Z,85.38
2023-12-22T16:47:54.872Z,85.55
2023-12-22T16:50:21.252Z,86.67
2023-12-22T16:52:48.061Z,85.49
2023-12-22T16:55:18.723Z,85.98
2023-12-22T16:57:45.584Z,85.97
2023-12-22T17:00:13.973Z,86.23
2023-12-22T17:02:40.775Z,86.19
2023-12-22T17:05:07.847Z,85.83
2023-12-22T17:07:37.745Z,85.67
2023-12-22T17:10:06.673Z,86.32
2023-12-22T17:12:33.098Z,86.80
2023-12-22T17:15:00.701Z,87.98
2023-12-22T17:17:27.957Z,87.02
2023-12-22T17:19:54.934Z,87.02
2023-12-22T17:22:21.330Z,88.19
2023-12-22T17:24:47.713Z,89.27
2023-12-22T17:27:14.048Z,89.88
2023-12-22T17:29:40.381Z,92.07
2023-12-22T17:32:11.412Z,91.96
2023-12-22T17:34:37.911Z,92.21
2023-12-22T17:37:05.407Z,93.21
2023-12-22T17:39:32.094Z,93.25
2023-12-22T17:41:58.470Z,93.41
2023-12-22T17:44:24.781Z,93.23
2023-12-22T17:46:51.175Z,93.05
2023-12-22T17:49:17.579Z,91.96
2023-12-22T17:51:44.294Z,93.49
2023-12-22T17:54:10.837Z,93.43
2023-12-22T17:56:37.430Z,94.08
2023-12-22T17:59:03.929Z,93.91
2023-12-22T18:01:30.717Z,93.68
2023-12-22T18:03:57.233Z,93.53
2023-12-22T18:06:23.680Z,93.97
2023-12-22T18:08:50.184Z,92.80
2023-12-22T18:11:16.864Z,92.61
2023-12-22T18:13:43.295Z,92.16
2023-12-22T18:16:09.706Z,93.08
2023-12-22T18:18:36.064Z,92.33
2023-12-22T18:21:02.738Z,92.90
2023-12-22T18:23:29.133Z,92.75
2023-12-22T18:25:55.545Z,91.81
2023-12-22T18:28:22.205Z,91.85
2023-12-22T18:30:48.629Z,91.28
2023-12-22T18:33:15.474Z,91.13
2023-12-22T18:35:41.901Z,91.85
2023-12-22T18:38:08.309Z,90.74
2023-12-22T18:40:34.705Z,91.35
2023-12-22T18:43:03.086Z,91.23
2023-12-22T18:45:29.594Z,92.32
2023-12-22T18:47:56.201Z,92.14
2023-12-22T18:50:23.095Z,91.83
2023-12-22T18:52:50.354Z,92.39
2023-12-22T18:55:16.937Z,92.17
2023-12-22T18:57:43.330Z,92.10
2023-12-22T19:00:10.999Z,92.53
2023-12-22T19:02:51.800Z,90.94
2023-12-22T19:05:23.309Z,90.86
2023-12-22T19:07:50.003Z,91.36
2023-12-22T19:10:17.147Z,92.37
2023-12-22T19:12:45.744Z,92.23
2023-12-22T19:15:12.170Z,93.21
2023-12-22T19:17:38.974Z,93.78
2023-12-22T19:20:07.100Z,93.69
2023-12-22T19:22:34.341Z,93.39
2023-12-22T19:25:01.034Z,93.20
2023-12-22T19:27:27.408Z,93.76
2023-12-22T19:29:53.836Z,92.92
2023-12-22T19:32:21.096Z,93.45
2023-12-22T19:34:50.512Z,93.31
2023-12-22T19:37:19.071Z,94.01
2023-12-22T19:39:46.278Z,93.51
2023-12-22T19:42:13.354Z,94.10
2023-12-22T19:44:40.216Z,93.48
2023-12-22T19:47:06.541Z,92.73
2023-12-22T19:49:34.499Z,92.41
2023-12-22T19:52:00.852Z,91.87
2023-12-22T19:54:27.181Z,91.17
2023-12-22T19:56:53.545Z,90.22
2023-12-22T19:59:20.069Z,90.34
2023-12-22T20:01:46.472Z,89.83
2023-12-22T20:04:12.911Z,90.40
2023-12-22T20:06:41.900Z,88.96
2023-12-22T20:09:09.179Z,89.35
2023-12-22T20:11:35.513Z,89.49
2023-12-22T20:14:02.640Z,89.73
2023-12-22T20:16:29.733Z,89.28
2023-12-22T20:18:57.650Z,88.91
2023-12-22T20:21:24.308Z,89.54
2023-12-22T20:23:52.893Z,87.59
2023-12-22T20:26:19.627Z,88.13
2023-12-22T20:28:46.180Z,88.16
2023-12-22T20:31:12.682Z,88.59
2023-12-22T20:33:39.078Z,87.43
2023-12-22T20:36:05.853Z,87.77
2023-12-22T20:38:32.252Z,88.50
2023-12-22T20:40:58.679Z,88.01
2023-12-22T20:43:25.554Z,87.87
2023-12-22T20:45:53.443Z,87.73
2023-12-22T20:48:19.960Z,87.54
2023-12-22T20:50:46.806Z,87.65
2023-12-22T20:53:13.271Z,87.77
2023-12-22T20:55:40.504Z,87.03
2023-12-22T20:58:07.823Z,85.73
2023-12-22T21:00:34.989Z,86.72
2023-12-22T21:03:01.416Z,85.92
2023-12-22T21:05:28.739Z,86.45
2023-12-22T21:07:56.178Z,86.29
2023-12-22T21:10:22.687Z,85.46
2023-12-22T21:12:49.126Z,85.40
2023-12-22T21:15:15.871Z,86.53
2023-12-22T21:17:50.883Z,86.59
2023-12-22T21:20:17.911Z,87.82
2023-12-22T21:22:44.545Z,88.80
2023-12-22T21:25:11.165Z,89.82
2023-12-22T21:27:37.717Z,90.01
2023-12-22T21:30:07.299Z,90.26
2023-12-22T21:32:33.967Z,88.85
2023-12-22T21:35:00.635Z,89.39
2023-12-22T21:37:27.153Z,89.48
2023-12-22T21:39:53.866Z,89.04
2023-12-22T21:42:20.267Z,88.74
2023-12-22T21:44:46.626Z,89.63
2023-12-22T21:47:14.395Z,89.28
2023-12-22T21:49:41.148Z,88.81
2023-12-22T21:52:07.622Z,88.53
2023-12-22T21:54:34.116Z,87.89
2023-12-22T21:57:00.547Z,87.52
2023-12-22T21:59:27.799Z,87.01
2023-12-22T22:01:54.328Z,87.24
2023-12-22T22:04:20.940Z,87.45
2023-12-22T22:06:47.263Z,87.44
2023-12-22T22:09:13.715Z,86.62
2023-12-22T22:11:40.255Z,86.68
2023-12-22T22:14:18.074Z,86.38
2023-12-22T22:16:49.696Z,86.89
2023-12-22T22:19:16.132Z,86.88
2023-12-22T22:21:42.523Z,86.66
2023-12-22T22:24:08.910Z,87.16
2023-12-22T22:26:39.645Z,87.19
2023-12-22T22:29:06.110Z,86.71
2023-12-22T22:31:32.547Z,85.76
2023-12-22T22:33:59.070Z,86.66
2023-12-22T22:36:25.496Z,86.72
2023-12-22T22:38:51.879Z,86.96
2023-12-22T22:41:18.361Z,87.88
2023-12-22T22:43:44.757Z,88.42
2023-12-22T22:46:13.008Z,87.44
2023-12-22T22:48:40.907Z,88.27
2023-12-22T22:51:07.297Z,88.02
2023-12-22T22:53:33.612Z,87.35
2023-12-22T22:56:01.993Z,87.03
2023-12-22T22:58:28.396Z,86.47
2023-12-22T23:00:54.791Z,86.31
2023-12-22T23:03:21.209Z,86.86
2023-12-22T23:05:47.683Z,86.82
2023-12-22T23:08:14.361Z,85.30
2023-12-22T23:10:40.842Z,85.20
2023-12-22T23:13:07.222Z,85.28
2023-12-22T23:15:33.640Z,84.70
2023-12-22T23:18:00.032Z,85.13
2023-12-22T23:20:26.571Z,85.20
2023-12-22T23:22:53.063Z,85.44
2023-12-22T23:25:19.777Z,84.13
2023-12-22T23:27:47.442Z,83.09
2023-12-22T23:30:14.059Z,83.82
2023-12-22T23:32:40.558Z,82.79
2023-12-22T23:35:07.531Z,82.18
2023-12-22T23:37:33.962Z,82.00
2023-12-22T23:40:00.299Z,83.21
2023-12-22T23:42:26.665Z,82.84
2023-12-22T23:44:52.984Z,83.13
2023-12-22T23:47:19.381Z,84.00
2023-12-22T23:49:45.760Z,82.89
2023-12-22T23:52:12.119Z,83.60
2023-12-22T23:54:38.711Z,83.88
2023-12-22T23:57:05.442Z,83.98
2023-12-22T23:59:31.802Z,82.49
